sensor_id;sensor_type;location;lat;lon;timestamp;P1;durP1;ratioP1;P2;durP2;ratioP2
61785;SDS011;47692;53.714;11.372;2022-09-09T00:00:53;30.70;;;14.35;;
61785;SDS011;47692;53.714;11.372;2022-09-09T00:03:40;29.17;;;13.75;;
61785;SDS011;47692;53.714;11.372;2022-09-09T00:11:16;33.08;;;15.30;;
61785;SDS011;47692;53.714;11.372;2022-09-09T00:13:51;31.85;;;14.98;;
61785;SDS011;47692;53.714;11.372;2022-09-09T00:16:25;30.92;;;14.70;;
61785;SDS011;47692;53.714;11.372;2022-09-09T00:18:58;33.72;;;14.82;;
61785;SDS011;47692;53.714;11.372;2022-09-09T00:23:57;29.92;;;14.15;;
61785;SDS011;47692;53.714;11.372;2022-09-09T00:26:40;30.95;;;14.85;;
61785;SDS011;47692;53.714;11.372;2022-09-09T00:31:37;28.45;;;14.98;;
61785;SDS011;47692;53.714;11.372;2022-09-09T00:34:11;33.05;;;16.42;;
61785;SDS011;47692;53.714;11.372;2022-09-09T00:36:38;34.47;;;16.65;;
61785;SDS011;47692;53.714;11.372;2022-09-09T00:39:05;33.55;;;15.80;;
61785;SDS011;47692;53.714;11.372;2022-09-09T00:44:20;29.55;;;15.00;;
61785;SDS011;47692;53.714;11.372;2022-09-09T00:46:52;28.35;;;14.60;;
61785;SDS011;47692;53.714;11.372;2022-09-09T00:50:12;33.40;;;15.95;;
61785;SDS011;47692;53.714;11.372;2022-09-09T00:52:26;35.25;;;16.00;;
61785;SDS011;47692;53.714;11.372;2022-09-09T00:57:40;31.88;;;15.88;;
61785;SDS011;47692;53.714;11.372;2022-09-09T01:00:26;31.45;;;14.77;;
61785;SDS011;47692;53.714;11.372;2022-09-09T01:03:10;33.05;;;14.90;;
61785;SDS011;47692;53.714;11.372;2022-09-09T01:11:25;34.08;;;15.55;;
61785;SDS011;47692;53.714;11.372;2022-09-09T01:14:02;32.08;;;15.93;;
61785;SDS011;47692;53.714;11.372;2022-09-09T01:16:38;29.98;;;15.65;;
61785;SDS011;47692;53.714;11.372;2022-09-09T01:19:07;27.63;;;14.18;;
61785;SDS011;47692;53.714;11.372;2022-09-09T01:21:45;33.38;;;14.80;;
61785;SDS011;47692;53.714;11.372;2022-09-09T01:27:26;32.00;;;15.48;;
61785;SDS011;47692;53.714;11.372;2022-09-09T01:29:51;32.53;;;15.63;;
61785;SDS011;47692;53.714;11.372;2022-09-09T01:35:37;28.67;;;13.77;;
61785;SDS011;47692;53.714;11.372;2022-09-09T01:38:16;27.08;;;13.50;;
61785;SDS011;47692;53.714;11.372;2022-09-09T01:40:42;29.17;;;13.88;;
61785;SDS011;47692;53.714;11.372;2022-09-09T01:43:08;30.33;;;14.40;;
61785;SDS011;47692;53.714;11.372;2022-09-09T01:45:34;30.98;;;14.05;;
61785;SDS011;47692;53.714;11.372;2022-09-09T01:47:59;31.27;;;14.13;;
61785;SDS011;47692;53.714;11.372;2022-09-09T01:50:26;30.80;;;14.15;;
61785;SDS011;47692;53.714;11.372;2022-09-09T01:52:54;31.77;;;14.38;;
61785;SDS011;47692;53.714;11.372;2022-09-09T01:55:33;34.80;;;15.00;;
61785;SDS011;47692;53.714;11.372;2022-09-09T02:00:40;27.55;;;14.23;;
61785;SDS011;47692;53.714;11.372;2022-09-09T02:03:25;32.20;;;13.93;;
61785;SDS011;47692;53.714;11.372;2022-09-09T02:08:36;31.40;;;14.90;;
61785;SDS011;47692;53.714;11.372;2022-09-09T02:11:17;27.33;;;13.60;;
61785;SDS011;47692;53.714;11.372;2022-09-09T02:13:48;29.10;;;12.77;;
61785;SDS011;47692;53.714;11.372;2022-09-09T02:21:14;27.00;;;13.25;;
61785;SDS011;47692;53.714;11.372;2022-09-09T02:23:41;28.88;;;12.98;;
61785;SDS011;47692;53.714;11.372;2022-09-09T02:26:08;29.05;;;14.10;;
61785;SDS011;47692;53.714;11.372;2022-09-09T02:28:38;27.20;;;13.30;;
61785;SDS011;47692;53.714;11.372;2022-09-09T02:31:05;29.33;;;13.20;;
61785;SDS011;47692;53.714;11.372;2022-09-09T02:33:33;31.40;;;13.95;;
61785;SDS011;47692;53.714;11.372;2022-09-09T02:36:04;35.38;;;14.48;;
61785;SDS011;47692;53.714;11.372;2022-09-09T02:38:34;31.98;;;14.00;;
61785;SDS011;47692;53.714;11.372;2022-09-09T02:41:04;29.92;;;14.35;;
61785;SDS011;47692;53.714;11.372;2022-09-09T02:43:34;35.30;;;14.27;;
61785;SDS011;47692;53.714;11.372;2022-09-09T02:56:33;39.63;;;14.00;;
61785;SDS011;47692;53.714;11.372;2022-09-09T02:59:04;36.45;;;14.07;;
61785;SDS011;47692;53.714;11.372;2022-09-09T03:01:30;35.03;;;13.98;;
61785;SDS011;47692;53.714;11.372;2022-09-09T03:03:56;33.53;;;13.90;;
61785;SDS011;47692;53.714;11.372;2022-09-09T03:06:22;27.55;;;11.85;;
61785;SDS011;47692;53.714;11.372;2022-09-09T03:08:47;34.00;;;12.65;;
61785;SDS011;47692;53.714;11.372;2022-09-09T03:11:14;32.28;;;13.18;;
61785;SDS011;47692;53.714;11.372;2022-09-09T03:13:39;34.10;;;12.75;;
61785;SDS011;47692;53.714;11.372;2022-09-09T03:16:04;33.13;;;11.43;;
61785;SDS011;47692;53.714;11.372;2022-09-09T03:18:30;35.85;;;12.77;;
61785;SDS011;47692;53.714;11.372;2022-09-09T03:20:56;34.03;;;12.52;;
61785;SDS011;47692;53.714;11.372;2022-09-09T03:23:24;38.88;;;11.15;;
61785;SDS011;47692;53.714;11.372;2022-09-09T03:25:50;37.35;;;9.85;;
61785;SDS011;47692;53.714;11.372;2022-09-09T03:28:17;30.23;;;10.05;;
61785;SDS011;47692;53.714;11.372;2022-09-09T03:30:42;29.98;;;10.05;;
61785;SDS011;47692;53.714;11.372;2022-09-09T03:33:08;29.75;;;9.93;;
61785;SDS011;47692;53.714;11.372;2022-09-09T03:35:33;27.17;;;9.60;;
61785;SDS011;47692;53.714;11.372;2022-09-09T03:37:58;27.55;;;9.57;;
61785;SDS011;47692;53.714;11.372;2022-09-09T03:40:25;31.60;;;9.43;;
61785;SDS011;47692;53.714;11.372;2022-09-09T03:42:51;29.77;;;9.43;;
61785;SDS011;47692;53.714;11.372;2022-09-09T03:45:16;24.55;;;9.57;;
61785;SDS011;47692;53.714;11.372;2022-09-09T03:47:42;26.20;;;9.48;;
61785;SDS011;47692;53.714;11.372;2022-09-09T03:50:07;24.85;;;9.90;;
61785;SDS011;47692;53.714;11.372;2022-09-09T03:52:36;20.58;;;8.18;;
61785;SDS011;47692;53.714;11.372;2022-09-09T03:55:02;27.67;;;9.95;;
61785;SDS011;47692;53.714;11.372;2022-09-09T03:57:27;21.63;;;9.15;;
61785;SDS011;47692;53.714;11.372;2022-09-09T03:59:54;22.55;;;9.10;;
61785;SDS011;47692;53.714;11.372;2022-09-09T04:02:20;22.60;;;9.27;;
61785;SDS011;47692;53.714;11.372;2022-09-09T04:04:46;29.17;;;9.75;;
61785;SDS011;47692;53.714;11.372;2022-09-09T04:07:11;25.50;;;10.25;;
61785;SDS011;47692;53.714;11.372;2022-09-09T04:09:37;30.52;;;10.55;;
61785;SDS011;47692;53.714;11.372;2022-09-09T04:12:03;24.42;;;9.45;;
61785;SDS011;47692;53.714;11.372;2022-09-09T04:14:28;23.05;;;9.80;;
61785;SDS011;47692;53.714;11.372;2022-09-09T04:16:54;25.70;;;9.95;;
61785;SDS011;47692;53.714;11.372;2022-09-09T04:19:22;26.23;;;10.30;;
61785;SDS011;47692;53.714;11.372;2022-09-09T04:21:47;22.50;;;10.45;;
61785;SDS011;47692;53.714;11.372;2022-09-09T04:24:16;24.38;;;10.60;;
61785;SDS011;47692;53.714;11.372;2022-09-09T04:26:42;25.95;;;10.95;;
61785;SDS011;47692;53.714;11.372;2022-09-09T04:29:08;23.95;;;9.98;;
61785;SDS011;47692;53.714;11.372;2022-09-09T04:31:33;25.38;;;11.07;;
61785;SDS011;47692;53.714;11.372;2022-09-09T04:33:59;31.17;;;11.07;;
61785;SDS011;47692;53.714;11.372;2022-09-09T04:36:30;26.98;;;11.57;;
61785;SDS011;47692;53.714;11.372;2022-09-09T04:38:56;26.30;;;11.57;;
61785;SDS011;47692;53.714;11.372;2022-09-09T04:41:22;32.38;;;11.55;;
61785;SDS011;47692;53.714;11.372;2022-09-09T04:43:47;32.95;;;12.15;;
61785;SDS011;47692;53.714;11.372;2022-09-09T04:46:13;26.02;;;10.93;;
61785;SDS011;47692;53.714;11.372;2022-09-09T04:48:38;26.05;;;11.30;;
61785;SDS011;47692;53.714;11.372;2022-09-09T04:51:05;30.63;;;12.98;;
61785;SDS011;47692;53.714;11.372;2022-09-09T04:53:34;25.10;;;10.93;;
61785;SDS011;47692;53.714;11.372;2022-09-09T04:58:30;28.23;;;12.57;;
61785;SDS011;47692;53.714;11.372;2022-09-09T05:01:02;29.92;;;12.68;;
61785;SDS011;47692;53.714;11.372;2022-09-09T05:03:28;31.58;;;12.65;;
61785;SDS011;47692;53.714;11.372;2022-09-09T05:05:54;33.40;;;13.88;;
61785;SDS011;47692;53.714;11.372;2022-09-09T05:08:19;29.75;;;13.50;;
61785;SDS011;47692;53.714;11.372;2022-09-09T05:10:45;34.95;;;13.57;;
61785;SDS011;47692;53.714;11.372;2022-09-09T05:13:11;31.05;;;12.50;;
61785;SDS011;47692;53.714;11.372;2022-09-09T05:15:36;29.15;;;12.82;;
61785;SDS011;47692;53.714;11.372;2022-09-09T05:18:02;31.73;;;13.32;;
61785;SDS011;47692;53.714;11.372;2022-09-09T05:20:27;29.88;;;13.32;;
61785;SDS011;47692;53.714;11.372;2022-09-09T05:22:53;28.45;;;12.40;;
61785;SDS011;47692;53.714;11.372;2022-09-09T05:25:19;32.38;;;12.48;;
61785;SDS011;47692;53.714;11.372;2022-09-09T05:27:45;27.98;;;12.40;;
61785;SDS011;47692;53.714;11.372;2022-09-09T05:30:10;30.65;;;12.98;;
61785;SDS011;47692;53.714;11.372;2022-09-09T05:32:36;31.92;;;13.13;;
61785;SDS011;47692;53.714;11.372;2022-09-09T05:35:01;30.70;;;13.20;;
61785;SDS011;47692;53.714;11.372;2022-09-09T05:37:27;34.80;;;13.40;;
61785;SDS011;47692;53.714;11.372;2022-09-09T05:39:54;32.00;;;12.35;;
61785;SDS011;47692;53.714;11.372;2022-09-09T05:42:19;32.78;;;13.27;;
61785;SDS011;47692;53.714;11.372;2022-09-09T05:44:45;31.13;;;13.85;;
61785;SDS011;47692;53.714;11.372;2022-09-09T05:47:10;33.22;;;13.63;;
61785;SDS011;47692;53.714;11.372;2022-09-09T05:49:36;31.40;;;14.10;;
61785;SDS011;47692;53.714;11.372;2022-09-09T05:52:02;26.80;;;13.18;;
61785;SDS011;47692;53.714;11.372;2022-09-09T05:54:28;29.70;;;13.02;;
61785;SDS011;47692;53.714;11.372;2022-09-09T05:56:54;25.75;;;12.23;;
61785;SDS011;47692;53.714;11.372;2022-09-09T05:59:20;26.88;;;12.70;;
61785;SDS011;47692;53.714;11.372;2022-09-09T06:01:45;31.15;;;13.05;;
61785;SDS011;47692;53.714;11.372;2022-09-09T06:04:11;28.50;;;12.45;;
61785;SDS011;47692;53.714;11.372;2022-09-09T06:06:37;26.05;;;12.18;;
61785;SDS011;47692;53.714;11.372;2022-09-09T06:09:05;26.15;;;12.10;;
61785;SDS011;47692;53.714;11.372;2022-09-09T06:11:34;29.33;;;13.30;;
61785;SDS011;47692;53.714;11.372;2022-09-09T06:14:01;24.48;;;11.60;;
61785;SDS011;47692;53.714;11.372;2022-09-09T06:16:28;25.13;;;12.38;;
61785;SDS011;47692;53.714;11.372;2022-09-09T06:18:55;26.17;;;12.35;;
61785;SDS011;47692;53.714;11.372;2022-09-09T06:21:22;28.63;;;12.80;;
61785;SDS011;47692;53.714;11.372;2022-09-09T06:23:48;27.95;;;12.65;;
61785;SDS011;47692;53.714;11.372;2022-09-09T06:26:16;27.02;;;12.85;;
61785;SDS011;47692;53.714;11.372;2022-09-09T06:28:44;28.08;;;12.50;;
61785;SDS011;47692;53.714;11.372;2022-09-09T06:31:11;27.08;;;12.65;;
61785;SDS011;47692;53.714;11.372;2022-09-09T06:33:41;24.70;;;11.82;;
61785;SDS011;47692;53.714;11.372;2022-09-09T06:36:07;22.33;;;11.45;;
61785;SDS011;47692;53.714;11.372;2022-09-09T06:38:37;26.63;;;11.95;;
61785;SDS011;47692;53.714;11.372;2022-09-09T06:41:02;22.45;;;10.82;;
61785;SDS011;47692;53.714;11.372;2022-09-09T06:43:28;23.33;;;10.73;;
61785;SDS011;47692;53.714;11.372;2022-09-09T06:45:57;22.23;;;10.32;;
61785;SDS011;47692;53.714;11.372;2022-09-09T06:48:27;21.73;;;10.40;;
61785;SDS011;47692;53.714;11.372;2022-09-09T06:51:14;20.60;;;9.75;;
61785;SDS011;47692;53.714;11.372;2022-09-09T06:53:43;17.42;;;8.68;;
61785;SDS011;47692;53.714;11.372;2022-09-09T06:58:34;21.40;;;9.52;;
61785;SDS011;47692;53.714;11.372;2022-09-09T07:01:07;21.85;;;10.13;;
61785;SDS011;47692;53.714;11.372;2022-09-09T07:03:32;18.65;;;9.82;;
61785;SDS011;47692;53.714;11.372;2022-09-09T07:05:59;21.00;;;10.00;;
61785;SDS011;47692;53.714;11.372;2022-09-09T07:08:24;17.70;;;9.00;;
61785;SDS011;47692;53.714;11.372;2022-09-09T07:10:50;17.90;;;8.27;;
61785;SDS011;47692;53.714;11.372;2022-09-09T07:13:19;15.80;;;8.40;;
61785;SDS011;47692;53.714;11.372;2022-09-09T07:15:50;16.48;;;8.27;;
61785;SDS011;47692;53.714;11.372;2022-09-09T07:18:15;13.63;;;7.85;;
61785;SDS011;47692;53.714;11.372;2022-09-09T07:20:41;17.58;;;9.15;;
61785;SDS011;47692;53.714;11.372;2022-09-09T07:23:06;14.77;;;7.80;;
61785;SDS011;47692;53.714;11.372;2022-09-09T07:25:31;14.50;;;8.40;;
61785;SDS011;47692;53.714;11.372;2022-09-09T07:27:57;15.52;;;8.23;;
61785;SDS011;47692;53.714;11.372;2022-09-09T07:30:22;13.70;;;8.25;;
61785;SDS011;47692;53.714;11.372;2022-09-09T07:32:47;12.20;;;7.22;;
61785;SDS011;47692;53.714;11.372;2022-09-09T07:35:15;13.90;;;7.32;;
61785;SDS011;47692;53.714;11.372;2022-09-09T07:37:41;14.27;;;6.97;;
61785;SDS011;47692;53.714;11.372;2022-09-09T07:40:06;11.00;;;6.47;;
61785;SDS011;47692;53.714;11.372;2022-09-09T07:42:32;10.88;;;6.22;;
61785;SDS011;47692;53.714;11.372;2022-09-09T07:44:58;11.82;;;6.38;;
61785;SDS011;47692;53.714;11.372;2022-09-09T07:47:24;12.70;;;5.53;;
61785;SDS011;47692;53.714;11.372;2022-09-09T07:49:49;10.40;;;6.40;;
61785;SDS011;47692;53.714;11.372;2022-09-09T07:52:15;11.65;;;5.53;;
61785;SDS011;47692;53.714;11.372;2022-09-09T07:54:41;11.05;;;6.18;;
61785;SDS011;47692;53.714;11.372;2022-09-09T07:57:07;9.07;;;5.57;;
61785;SDS011;47692;53.714;11.372;2022-09-09T07:59:33;10.82;;;6.30;;
61785;SDS011;47692;53.714;11.372;2022-09-09T08:01:58;13.50;;;6.43;;
61785;SDS011;47692;53.714;11.372;2022-09-09T08:04:24;11.27;;;6.07;;
61785;SDS011;47692;53.714;11.372;2022-09-09T08:07:00;10.07;;;6.10;;
61785;SDS011;47692;53.714;11.372;2022-09-09T08:09:26;11.27;;;6.45;;
61785;SDS011;47692;53.714;11.372;2022-09-09T08:11:54;8.55;;;5.55;;
61785;SDS011;47692;53.714;11.372;2022-09-09T08:14:21;11.32;;;5.80;;
61785;SDS011;47692;53.714;11.372;2022-09-09T08:16:48;9.35;;;6.00;;
61785;SDS011;47692;53.714;11.372;2022-09-09T08:19:15;8.85;;;5.18;;
61785;SDS011;47692;53.714;11.372;2022-09-09T08:21:41;12.80;;;5.72;;
61785;SDS011;47692;53.714;11.372;2022-09-09T08:24:08;9.10;;;5.20;;
61785;SDS011;47692;53.714;11.372;2022-09-09T08:26:36;9.05;;;5.63;;
61785;SDS011;47692;53.714;11.372;2022-09-09T08:29:04;9.10;;;5.00;;
61785;SDS011;47692;53.714;11.372;2022-09-09T08:31:35;13.02;;;4.97;;
61785;SDS011;47692;53.714;11.372;2022-09-09T08:34:02;10.48;;;5.00;;
61785;SDS011;47692;53.714;11.372;2022-09-09T08:36:30;9.55;;;5.60;;
61785;SDS011;47692;53.714;11.372;2022-09-09T08:39:01;6.82;;;4.60;;
61785;SDS011;47692;53.714;11.372;2022-09-09T08:52:28;8.00;;;4.45;;
61785;SDS011;47692;53.714;11.372;2022-09-09T08:57:49;7.35;;;4.70;;
61785;SDS011;47692;53.714;11.372;2022-09-09T09:00:17;5.80;;;4.05;;
61785;SDS011;47692;53.714;11.372;2022-09-09T09:02:54;5.90;;;4.03;;
61785;SDS011;47692;53.714;11.372;2022-09-09T09:05:27;7.68;;;4.30;;
61785;SDS011;47692;53.714;11.372;2022-09-09T09:10:47;8.32;;;4.03;;
61785;SDS011;47692;53.714;11.372;2022-09-09T09:13:14;5.88;;;3.85;;
61785;SDS011;47692;53.714;11.372;2022-09-09T09:15:43;7.30;;;3.38;;
61785;SDS011;47692;53.714;11.372;2022-09-09T09:18:13;7.22;;;3.10;;
61785;SDS011;47692;53.714;11.372;2022-09-09T09:23:54;5.30;;;2.60;;
61785;SDS011;47692;53.714;11.372;2022-09-09T09:26:23;4.18;;;2.63;;
61785;SDS011;47692;53.714;11.372;2022-09-09T09:28:55;5.72;;;2.72;;
61785;SDS011;47692;53.714;11.372;2022-09-09T09:31:22;5.43;;;2.63;;
61785;SDS011;47692;53.714;11.372;2022-09-09T09:33:52;6.18;;;3.25;;
61785;SDS011;47692;53.714;11.372;2022-09-09T09:36:19;4.38;;;2.45;;
61785;SDS011;47692;53.714;11.372;2022-09-09T09:38:52;7.45;;;2.83;;
61785;SDS011;47692;53.714;11.372;2022-09-09T09:41:36;5.20;;;3.13;;
61785;SDS011;47692;53.714;11.372;2022-09-09T09:44:04;6.63;;;2.78;;
61785;SDS011;47692;53.714;11.372;2022-09-09T09:46:30;3.85;;;2.58;;
61785;SDS011;47692;53.714;11.372;2022-09-09T09:49:01;5.75;;;2.85;;
61785;SDS011;47692;53.714;11.372;2022-09-09T09:51:29;5.77;;;2.30;;
61785;SDS011;47692;53.714;11.372;2022-09-09T09:54:08;4.80;;;2.75;;
61785;SDS011;47692;53.714;11.372;2022-09-09T09:56:40;6.47;;;3.42;;
61785;SDS011;47692;53.714;11.372;2022-09-09T09:59:59;5.35;;;2.78;;
61785;SDS011;47692;53.714;11.372;2022-09-09T10:01:53;5.25;;;3.17;;
61785;SDS011;47692;53.714;11.372;2022-09-09T10:04:22;4.57;;;2.78;;
61785;SDS011;47692;53.714;11.372;2022-09-09T10:06:51;6.63;;;2.65;;
61785;SDS011;47692;53.714;11.372;2022-09-09T10:09:26;4.60;;;2.70;;
61785;SDS011;47692;53.714;11.372;2022-09-09T10:17:54;3.55;;;1.35;;
61785;SDS011;47692;53.714;11.372;2022-09-09T10:20:42;3.90;;;1.30;;
61785;SDS011;47692;53.714;11.372;2022-09-09T10:40:14;2.83;;;1.00;;
61785;SDS011;47692;53.714;11.372;2022-09-09T10:42:45;3.50;;;0.90;;
61785;SDS011;47692;53.714;11.372;2022-09-09T10:45:32;2.95;;;1.20;;
61785;SDS011;47692;53.714;11.372;2022-09-09T10:48:22;2.75;;;1.42;;
61785;SDS011;47692;53.714;11.372;2022-09-09T10:53:57;1.80;;;1.40;;
61785;SDS011;47692;53.714;11.372;2022-09-09T10:56:35;2.90;;;1.30;;
61785;SDS011;47692;53.714;11.372;2022-09-09T10:59:06;1.92;;;1.35;;
61785;SDS011;47692;53.714;11.372;2022-09-09T11:01:41;2.95;;;1.40;;
61785;SDS011;47692;53.714;11.372;2022-09-09T11:04:20;2.92;;;1.38;;
61785;SDS011;47692;53.714;11.372;2022-09-09T11:06:52;3.05;;;1.30;;
61785;SDS011;47692;53.714;11.372;2022-09-09T11:09:31;1.80;;;1.30;;
61785;SDS011;47692;53.714;11.372;2022-09-09T11:12:02;2.95;;;1.60;;
61785;SDS011;47692;53.714;11.372;2022-09-09T11:19:45;2.35;;;1.00;;
61785;SDS011;47692;53.714;11.372;2022-09-09T11:27:08;1.70;;;0.80;;
61785;SDS011;47692;53.714;11.372;2022-09-09T11:32:52;2.85;;;1.23;;
61785;SDS011;47692;53.714;11.372;2022-09-09T11:38:29;2.22;;;1.00;;
61785;SDS011;47692;53.714;11.372;2022-09-09T11:41:07;2.67;;;0.77;;
61785;SDS011;47692;53.714;11.372;2022-09-09T11:43:44;1.50;;;0.93;;
61785;SDS011;47692;53.714;11.372;2022-09-09T11:46:12;2.92;;;1.00;;
61785;SDS011;47692;53.714;11.372;2022-09-09T11:48:41;2.08;;;1.02;;
61785;SDS011;47692;53.714;11.372;2022-09-09T11:51:25;2.80;;;0.95;;
61785;SDS011;47692;53.714;11.372;2022-09-09T11:56:27;2.53;;;1.08;;
61785;SDS011;47692;53.714;11.372;2022-09-09T11:59:19;6.20;;;1.00;;
61785;SDS011;47692;53.714;11.372;2022-09-09T12:01:45;3.38;;;0.93;;
61785;SDS011;47692;53.714;11.372;2022-09-09T12:06:53;2.78;;;0.90;;
61785;SDS011;47692;53.714;11.372;2022-09-09T12:09:39;2.15;;;0.80;;
61785;SDS011;47692;53.714;11.372;2022-09-09T12:17:37;2.45;;;0.75;;
61785;SDS011;47692;53.714;11.372;2022-09-09T12:20:15;2.05;;;0.88;;
61785;SDS011;47692;53.714;11.372;2022-09-09T12:31:06;1.50;;;0.85;;
61785;SDS011;47692;53.714;11.372;2022-09-09T12:33:42;1.70;;;0.88;;
61785;SDS011;47692;53.714;11.372;2022-09-09T12:36:23;1.55;;;0.77;;
61785;SDS011;47692;53.714;11.372;2022-09-09T12:38:56;2.42;;;0.73;;
61785;SDS011;47692;53.714;11.372;2022-09-09T12:44:39;1.95;;;1.00;;
61785;SDS011;47692;53.714;11.372;2022-09-09T12:47:16;4.13;;;0.95;;
61785;SDS011;47692;53.714;11.372;2022-09-09T12:49:43;1.83;;;0.88;;
61785;SDS011;47692;53.714;11.372;2022-09-09T12:55:04;2.47;;;1.08;;
61785;SDS011;47692;53.714;11.372;2022-09-09T12:57:35;1.88;;;0.77;;
61785;SDS011;47692;53.714;11.372;2022-09-09T13:00:08;1.85;;;0.90;;
61785;SDS011;47692;53.714;11.372;2022-09-09T13:02:48;4.00;;;1.05;;
61785;SDS011;47692;53.714;11.372;2022-09-09T13:05:20;1.70;;;1.20;;
61785;SDS011;47692;53.714;11.372;2022-09-09T13:07:50;2.35;;;1.00;;
61785;SDS011;47692;53.714;11.372;2022-09-09T13:10:21;2.40;;;1.00;;
61785;SDS011;47692;53.714;11.372;2022-09-09T13:12:51;1.85;;;1.05;;
61785;SDS011;47692;53.714;11.372;2022-09-09T13:15:21;3.40;;;1.02;;
61785;SDS011;47692;53.714;11.372;2022-09-09T13:20:16;2.35;;;1.10;;
61785;SDS011;47692;53.714;11.372;2022-09-09T13:22:43;1.85;;;1.00;;
61785;SDS011;47692;53.714;11.372;2022-09-09T13:27:36;1.25;;;0.80;;
61785;SDS011;47692;53.714;11.372;2022-09-09T13:33:01;2.08;;;1.00;;
61785;SDS011;47692;53.714;11.372;2022-09-09T13:35:29;2.97;;;0.88;;
61785;SDS011;47692;53.714;11.372;2022-09-09T13:37:55;2.25;;;1.02;;
61785;SDS011;47692;53.714;11.372;2022-09-09T13:40:21;2.15;;;0.75;;
61785;SDS011;47692;53.714;11.372;2022-09-09T13:42:51;2.58;;;1.00;;
61785;SDS011;47692;53.714;11.372;2022-09-09T13:45:21;1.50;;;0.98;;
61785;SDS011;47692;53.714;11.372;2022-09-09T13:47:49;3.58;;;1.10;;
61785;SDS011;47692;53.714;11.372;2022-09-09T13:50:24;4.45;;;1.08;;
61785;SDS011;47692;53.714;11.372;2022-09-09T13:52:53;3.33;;;0.90;;
61785;SDS011;47692;53.714;11.372;2022-09-09T13:55:26;4.20;;;2.03;;
61785;SDS011;47692;53.714;11.372;2022-09-09T13:57:53;2.33;;;1.10;;
61785;SDS011;47692;53.714;11.372;2022-09-09T14:00:20;2.20;;;1.13;;
61785;SDS011;47692;53.714;11.372;2022-09-09T14:02:48;2.35;;;1.00;;
61785;SDS011;47692;53.714;11.372;2022-09-09T14:05:14;3.33;;;1.27;;
61785;SDS011;47692;53.714;11.372;2022-09-09T14:07:41;3.10;;;1.30;;
61785;SDS011;47692;53.714;11.372;2022-09-09T14:10:07;2.90;;;1.25;;
61785;SDS011;47692;53.714;11.372;2022-09-09T14:12:33;4.25;;;1.15;;
61785;SDS011;47692;53.714;11.372;2022-09-09T14:14:58;3.55;;;0.88;;
61785;SDS011;47692;53.714;11.372;2022-09-09T14:17:27;3.13;;;0.90;;
61785;SDS011;47692;53.714;11.372;2022-09-09T14:19:54;2.45;;;0.90;;
61785;SDS011;47692;53.714;11.372;2022-09-09T14:22:21;2.90;;;0.90;;
61785;SDS011;47692;53.714;11.372;2022-09-09T14:24:46;1.80;;;0.82;;
61785;SDS011;47692;53.714;11.372;2022-09-09T14:27:12;2.55;;;0.98;;
61785;SDS011;47692;53.714;11.372;2022-09-09T14:29:37;3.80;;;1.30;;
61785;SDS011;47692;53.714;11.372;2022-09-09T14:32:03;3.80;;;1.08;;
61785;SDS011;47692;53.714;11.372;2022-09-09T14:34:28;1.50;;;1.20;;
61785;SDS011;47692;53.714;11.372;2022-09-09T14:36:53;2.38;;;1.08;;
61785;SDS011;47692;53.714;11.372;2022-09-09T14:39:19;2.80;;;1.30;;
61785;SDS011;47692;53.714;11.372;2022-09-09T14:41:44;1.95;;;1.17;;
61785;SDS011;47692;53.714;11.372;2022-09-09T14:44:10;2.38;;;1.30;;
61785;SDS011;47692;53.714;11.372;2022-09-09T14:46:36;3.15;;;1.30;;
61785;SDS011;47692;53.714;11.372;2022-09-09T14:49:01;3.88;;;1.27;;
61785;SDS011;47692;53.714;11.372;2022-09-09T14:51:27;3.03;;;1.23;;
61785;SDS011;47692;53.714;11.372;2022-09-09T14:53:57;4.20;;;1.45;;
61785;SDS011;47692;53.714;11.372;2022-09-09T14:56:25;2.23;;;1.53;;
61785;SDS011;47692;53.714;11.372;2022-09-09T14:58:53;2.65;;;1.58;;
61785;SDS011;47692;53.714;11.372;2022-09-09T15:01:20;3.90;;;1.27;;
61785;SDS011;47692;53.714;11.372;2022-09-09T15:03:50;2.85;;;1.50;;
61785;SDS011;47692;53.714;11.372;2022-09-09T15:06:21;3.05;;;1.50;;
61785;SDS011;47692;53.714;11.372;2022-09-09T15:08:49;3.08;;;1.65;;
61785;SDS011;47692;53.714;11.372;2022-09-09T15:11:15;2.97;;;1.58;;
61785;SDS011;47692;53.714;11.372;2022-09-09T15:13:41;5.35;;;2.40;;
61785;SDS011;47692;53.714;11.372;2022-09-09T15:16:14;3.50;;;1.60;;
61785;SDS011;47692;53.714;11.372;2022-09-09T15:18:42;3.38;;;2.25;;
61785;SDS011;47692;53.714;11.372;2022-09-09T15:21:14;2.50;;;1.90;;
61785;SDS011;47692;53.714;11.372;2022-09-09T15:23:41;2.55;;;1.77;;
61785;SDS011;47692;53.714;11.372;2022-09-09T15:26:08;6.20;;;2.03;;
61785;SDS011;47692;53.714;11.372;2022-09-09T15:28:34;2.80;;;1.90;;
61785;SDS011;47692;53.714;11.372;2022-09-09T15:31:04;5.25;;;1.70;;
61785;SDS011;47692;53.714;11.372;2022-09-09T15:33:32;4.45;;;1.90;;
61785;SDS011;47692;53.714;11.372;2022-09-09T15:35:58;3.83;;;1.77;;
61785;SDS011;47692;53.714;11.372;2022-09-09T15:38:23;5.07;;;1.58;;
61785;SDS011;47692;53.714;11.372;2022-09-09T15:40:53;2.58;;;1.67;;
61785;SDS011;47692;53.714;11.372;2022-09-09T15:43:19;4.40;;;2.10;;
61785;SDS011;47692;53.714;11.372;2022-09-09T15:45:45;3.55;;;2.08;;
61785;SDS011;47692;53.714;11.372;2022-09-09T15:48:13;5.03;;;2.60;;
61785;SDS011;47692;53.714;11.372;2022-09-09T15:50:39;2.85;;;1.92;;
61785;SDS011;47692;53.714;11.372;2022-09-09T15:53:04;2.78;;;1.73;;
61785;SDS011;47692;53.714;11.372;2022-09-09T15:55:31;3.08;;;1.73;;
61785;SDS011;47692;53.714;11.372;2022-09-09T15:57:56;3.47;;;1.67;;
61785;SDS011;47692;53.714;11.372;2022-09-09T16:00:22;3.55;;;1.75;;
61785;SDS011;47692;53.714;11.372;2022-09-09T16:02:49;2.72;;;1.70;;
61785;SDS011;47692;53.714;11.372;2022-09-09T16:05:14;4.63;;;1.85;;
61785;SDS011;47692;53.714;11.372;2022-09-09T16:07:40;4.10;;;1.75;;
61785;SDS011;47692;53.714;11.372;2022-09-09T16:10:07;4.63;;;2.10;;
61785;SDS011;47692;53.714;11.372;2022-09-09T16:12:33;3.50;;;2.00;;
61785;SDS011;47692;53.714;11.372;2022-09-09T16:14:59;2.88;;;1.98;;
61785;SDS011;47692;53.714;11.372;2022-09-09T16:17:24;5.50;;;2.00;;
61785;SDS011;47692;53.714;11.372;2022-09-09T16:19:50;6.10;;;1.77;;
61785;SDS011;47692;53.714;11.372;2022-09-09T16:22:15;5.10;;;1.90;;
61785;SDS011;47692;53.714;11.372;2022-09-09T16:24:41;3.75;;;1.77;;
61785;SDS011;47692;53.714;11.372;2022-09-09T16:27:06;5.90;;;1.80;;
61785;SDS011;47692;53.714;11.372;2022-09-09T16:29:32;6.43;;;1.92;;
61785;SDS011;47692;53.714;11.372;2022-09-09T16:31:58;5.72;;;1.95;;
61785;SDS011;47692;53.714;11.372;2022-09-09T16:34:25;3.67;;;1.20;;
61785;SDS011;47692;53.714;11.372;2022-09-09T16:36:50;5.78;;;1.88;;
61785;SDS011;47692;53.714;11.372;2022-09-09T16:39:17;4.53;;;1.45;;
61785;SDS011;47692;53.714;11.372;2022-09-09T16:41:44;5.38;;;1.83;;
61785;SDS011;47692;53.714;11.372;2022-09-09T16:44:12;3.20;;;1.30;;
61785;SDS011;47692;53.714;11.372;2022-09-09T16:46:40;4.10;;;1.30;;
61785;SDS011;47692;53.714;11.372;2022-09-09T16:49:08;3.10;;;1.35;;
61785;SDS011;47692;53.714;11.372;2022-09-09T16:51:42;3.63;;;1.40;;
61785;SDS011;47692;53.714;11.372;2022-09-09T16:54:12;5.20;;;1.60;;
61785;SDS011;47692;53.714;11.372;2022-09-09T16:56:39;3.85;;;1.63;;
61785;SDS011;47692;53.714;11.372;2022-09-09T16:59:27;2.83;;;1.58;;
61785;SDS011;47692;53.714;11.372;2022-09-09T17:01:52;5.78;;;1.95;;